sensor_id;sensor_type;location;lat;lon;timestamp;P1;durP1;ratioP1;P2;durP2;ratioP2
13279;SDS011;6708;49.814;8.652;2024-03-17T00:00:29;2.30;;;2.10;;
13279;SDS011;6708;49.814;8.652;2024-03-17T00:02:55;2.37;;;2.27;;
13279;SDS011;6708;49.814;8.652;2024-03-17T00:05:23;2.30;;;2.10;;
13279;SDS011;6708;49.814;8.652;2024-03-17T00:07:52;2.23;;;2.03;;
13279;SDS011;6708;49.814;8.652;2024-03-17T00:10:20;2.70;;;2.50;;
13279;SDS011;6708;49.814;8.652;2024-03-17T00:12:46;2.73;;;2.57;;
13279;SDS011;6708;49.814;8.652;2024-03-17T00:15:14;3.23;;;2.93;;
13279;SDS011;6708;49.814;8.652;2024-03-17T00:17:40;2.70;;;2.50;;
13279;SDS011;6708;49.814;8.652;2024-03-17T00:20:09;2.70;;;2.50;;
13279;SDS011;6708;49.814;8.652;2024-03-17T00:22:44;2.30;;;2.20;;
13279;SDS011;6708;49.814;8.652;2024-03-17T00:25:15;1.60;;;1.60;;
13279;SDS011;6708;49.814;8.652;2024-03-17T00:27:40;4.43;;;2.20;;
13279;SDS011;6708;49.814;8.652;2024-03-17T00:30:10;1.93;;;1.83;;
13279;SDS011;6708;49.814;8.652;2024-03-17T00:32:38;2.20;;;1.70;;
13279;SDS011;6708;49.814;8.652;2024-03-17T00:35:06;3.90;;;2.00;;
13279;SDS011;6708;49.814;8.652;2024-03-17T00:37:33;2.03;;;1.93;;
13279;SDS011;6708;49.814;8.652;2024-03-17T00:40:01;2.13;;;1.97;;
13279;SDS011;6708;49.814;8.652;2024-03-17T00:42:30;3.73;;;2.37;;
13279;SDS011;6708;49.814;8.652;2024-03-17T00:44:59;2.50;;;2.13;;
13279;SDS011;6708;49.814;8.652;2024-03-17T00:47:25;2.50;;;2.40;;
13279;SDS011;6708;49.814;8.652;2024-03-17T00:49:53;2.30;;;2.10;;
13279;SDS011;6708;49.814;8.652;2024-03-17T00:52:19;2.27;;;2.17;;
13279;SDS011;6708;49.814;8.652;2024-03-17T00:54:47;2.07;;;1.97;;
13279;SDS011;6708;49.814;8.652;2024-03-17T00:57:13;2.80;;;1.77;;
13279;SDS011;6708;49.814;8.652;2024-03-17T00:59:44;4.77;;;2.40;;
13279;SDS011;6708;49.814;8.652;2024-03-17T01:02:10;2.17;;;2.07;;
13279;SDS011;6708;49.814;8.652;2024-03-17T01:04:41;3.33;;;2.20;;
13279;SDS011;6708;49.814;8.652;2024-03-17T01:07:07;3.13;;;2.30;;
13279;SDS011;6708;49.814;8.652;2024-03-17T01:09:36;1.90;;;1.80;;
13279;SDS011;6708;49.814;8.652;2024-03-17T01:12:01;1.93;;;1.83;;
13279;SDS011;6708;49.814;8.652;2024-03-17T01:14:31;2.00;;;1.90;;
13279;SDS011;6708;49.814;8.652;2024-03-17T01:17:00;2.20;;;2.10;;
13279;SDS011;6708;49.814;8.652;2024-03-17T01:19:30;2.57;;;2.13;;
13279;SDS011;6708;49.814;8.652;2024-03-17T01:21:56;2.20;;;2.10;;
13279;SDS011;6708;49.814;8.652;2024-03-17T01:24:24;3.70;;;2.10;;
13279;SDS011;6708;49.814;8.652;2024-03-17T01:26:50;3.80;;;2.20;;
13279;SDS011;6708;49.814;8.652;2024-03-17T01:29:19;1.87;;;1.87;;
13279;SDS011;6708;49.814;8.652;2024-03-17T01:31:44;2.27;;;2.17;;
13279;SDS011;6708;49.814;8.652;2024-03-17T01:34:15;2.77;;;2.27;;
13279;SDS011;6708;49.814;8.652;2024-03-17T01:36:41;1.97;;;1.87;;
13279;SDS011;6708;49.814;8.652;2024-03-17T01:39:09;2.10;;;2.00;;
13279;SDS011;6708;49.814;8.652;2024-03-17T01:41:36;2.40;;;2.30;;
13279;SDS011;6708;49.814;8.652;2024-03-17T01:44:04;2.47;;;2.33;;
13279;SDS011;6708;49.814;8.652;2024-03-17T01:46:30;2.00;;;1.90;;
13279;SDS011;6708;49.814;8.652;2024-03-17T01:48:59;2.40;;;2.30;;
13279;SDS011;6708;49.814;8.652;2024-03-17T01:51:27;2.07;;;1.97;;
13279;SDS011;6708;49.814;8.652;2024-03-17T01:53:55;2.07;;;2.00;;
13279;SDS011;6708;49.814;8.652;2024-03-17T01:56:21;2.50;;;2.40;;
13279;SDS011;6708;49.814;8.652;2024-03-17T01:58:50;1.87;;;1.87;;
13279;SDS011;6708;49.814;8.652;2024-03-17T02:01:16;5.67;;;2.83;;
13279;SDS011;6708;49.814;8.652;2024-03-17T02:03:45;2.27;;;2.17;;
13279;SDS011;6708;49.814;8.652;2024-03-17T02:06:10;2.93;;;2.60;;
13279;SDS011;6708;49.814;8.652;2024-03-17T02:08:51;3.97;;;2.20;;
13279;SDS011;6708;49.814;8.652;2024-03-17T02:11:24;2.33;;;2.20;;
13279;SDS011;6708;49.814;8.652;2024-03-17T02:13:54;2.17;;;2.07;;
13279;SDS011;6708;49.814;8.652;2024-03-17T02:16:20;2.40;;;2.17;;
13279;SDS011;6708;49.814;8.652;2024-03-17T02:18:53;2.63;;;2.50;;
13279;SDS011;6708;49.814;8.652;2024-03-17T02:21:19;3.10;;;2.37;;
13279;SDS011;6708;49.814;8.652;2024-03-17T02:23:50;2.10;;;2.00;;
13279;SDS011;6708;49.814;8.652;2024-03-17T02:26:16;2.10;;;2.00;;
13279;SDS011;6708;49.814;8.652;2024-03-17T02:28:45;2.20;;;2.10;;
13279;SDS011;6708;49.814;8.652;2024-03-17T02:31:13;2.40;;;2.20;;
13279;SDS011;6708;49.814;8.652;2024-03-17T02:33:42;2.13;;;2.10;;
13279;SDS011;6708;49.814;8.652;2024-03-17T02:36:09;2.50;;;2.30;;
13279;SDS011;6708;49.814;8.652;2024-03-17T02:38:38;1.83;;;1.80;;
13279;SDS011;6708;49.814;8.652;2024-03-17T02:41:21;2.10;;;2.00;;
13279;SDS011;6708;49.814;8.652;2024-03-17T02:43:50;2.90;;;2.53;;
13279;SDS011;6708;49.814;8.652;2024-03-17T02:46:18;2.43;;;2.33;;
13279;SDS011;6708;49.814;8.652;2024-03-17T02:48:50;2.20;;;2.00;;
13279;SDS011;6708;49.814;8.652;2024-03-17T02:51:19;2.60;;;2.40;;
13279;SDS011;6708;49.814;8.652;2024-03-17T02:53:49;1.87;;;1.87;;
13279;SDS011;6708;49.814;8.652;2024-03-17T02:56:18;3.23;;;2.50;;
13279;SDS011;6708;49.814;8.652;2024-03-17T02:58:49;2.47;;;2.30;;
13279;SDS011;6708;49.814;8.652;2024-03-17T03:01:17;2.60;;;1.83;;
13279;SDS011;6708;49.814;8.652;2024-03-17T03:03:46;2.20;;;1.93;;
13279;SDS011;6708;49.814;8.652;2024-03-17T03:06:15;2.07;;;1.97;;
13279;SDS011;6708;49.814;8.652;2024-03-17T03:08:44;1.90;;;1.77;;
13279;SDS011;6708;49.814;8.652;2024-03-17T03:11:15;2.33;;;2.23;;
13279;SDS011;6708;49.814;8.652;2024-03-17T03:13:44;2.27;;;2.17;;
13279;SDS011;6708;49.814;8.652;2024-03-17T03:16:15;2.30;;;2.10;;
13279;SDS011;6708;49.814;8.652;2024-03-17T03:18:44;2.27;;;2.07;;
13279;SDS011;6708;49.814;8.652;2024-03-17T03:21:12;2.07;;;1.97;;
13279;SDS011;6708;49.814;8.652;2024-03-17T03:23:40;2.00;;;1.90;;
13279;SDS011;6708;49.814;8.652;2024-03-17T03:26:09;3.00;;;1.97;;
13279;SDS011;6708;49.814;8.652;2024-03-17T03:28:37;1.90;;;1.80;;
13279;SDS011;6708;49.814;8.652;2024-03-17T03:31:06;2.53;;;1.67;;
13279;SDS011;6708;49.814;8.652;2024-03-17T03:33:37;1.67;;;1.57;;
13279;SDS011;6708;49.814;8.652;2024-03-17T03:36:08;1.50;;;1.40;;
13279;SDS011;6708;49.814;8.652;2024-03-17T03:38:38;1.20;;;1.20;;
13279;SDS011;6708;49.814;8.652;2024-03-17T03:41:07;1.13;;;1.13;;
13279;SDS011;6708;49.814;8.652;2024-03-17T03:43:37;1.40;;;1.30;;
13279;SDS011;6708;49.814;8.652;2024-03-17T03:46:06;3.10;;;1.83;;
13279;SDS011;6708;49.814;8.652;2024-03-17T03:48:37;2.30;;;1.43;;
13279;SDS011;6708;49.814;8.652;2024-03-17T03:51:06;1.70;;;1.60;;
13279;SDS011;6708;49.814;8.652;2024-03-17T03:53:35;1.63;;;1.10;;
13279;SDS011;6708;49.814;8.652;2024-03-17T03:56:05;1.17;;;1.17;;
13279;SDS011;6708;49.814;8.652;2024-03-17T03:58:35;1.67;;;1.57;;
13279;SDS011;6708;49.814;8.652;2024-03-17T04:01:05;8.57;;;1.80;;
13279;SDS011;6708;49.814;8.652;2024-03-17T04:03:37;1.57;;;1.50;;
13279;SDS011;6708;49.814;8.652;2024-03-17T04:06:06;1.70;;;1.10;;
13279;SDS011;6708;49.814;8.652;2024-03-17T04:08:35;1.30;;;1.23;;
13279;SDS011;6708;49.814;8.652;2024-03-17T04:11:05;1.97;;;1.27;;
13279;SDS011;6708;49.814;8.652;2024-03-17T04:13:34;1.03;;;1.03;;
13279;SDS011;6708;49.814;8.652;2024-03-17T04:16:03;1.20;;;1.20;;
13279;SDS011;6708;49.814;8.652;2024-03-17T04:18:33;1.60;;;1.50;;
13279;SDS011;6708;49.814;8.652;2024-03-17T04:21:06;1.77;;;1.67;;
13279;SDS011;6708;49.814;8.652;2024-03-17T04:23:35;1.93;;;1.43;;
13279;SDS011;6708;49.814;8.652;2024-03-17T04:26:03;1.70;;;1.37;;
13279;SDS011;6708;49.814;8.652;2024-03-17T04:28:32;1.43;;;1.33;;
13279;SDS011;6708;49.814;8.652;2024-03-17T04:31:04;1.30;;;1.30;;
13279;SDS011;6708;49.814;8.652;2024-03-17T04:33:30;1.40;;;1.30;;
13279;SDS011;6708;49.814;8.652;2024-03-17T04:35:59;1.23;;;1.23;;
13279;SDS011;6708;49.814;8.652;2024-03-17T04:38:30;1.23;;;1.20;;
13279;SDS011;6708;49.814;8.652;2024-03-17T04:40:58;1.83;;;1.53;;
13279;SDS011;6708;49.814;8.652;2024-03-17T04:43:33;1.47;;;1.47;;
13279;SDS011;6708;49.814;8.652;2024-03-17T04:46:02;1.67;;;1.40;;
13279;SDS011;6708;49.814;8.652;2024-03-17T04:48:34;1.40;;;1.30;;
13279;SDS011;6708;49.814;8.652;2024-03-17T04:51:03;0.80;;;0.80;;
13279;SDS011;6708;49.814;8.652;2024-03-17T04:53:34;2.47;;;1.50;;
13279;SDS011;6708;49.814;8.652;2024-03-17T04:56:03;1.10;;;1.10;;
13279;SDS011;6708;49.814;8.652;2024-03-17T04:58:32;1.60;;;1.50;;
13279;SDS011;6708;49.814;8.652;2024-03-17T05:01:05;1.20;;;1.20;;
13279;SDS011;6708;49.814;8.652;2024-03-17T05:03:34;2.17;;;1.73;;
13279;SDS011;6708;49.814;8.652;2024-03-17T05:06:03;1.40;;;1.40;;
13279;SDS011;6708;49.814;8.652;2024-03-17T05:08:34;1.70;;;1.60;;
13279;SDS011;6708;49.814;8.652;2024-03-17T05:11:04;2.00;;;1.90;;
13279;SDS011;6708;49.814;8.652;2024-03-17T05:13:33;1.63;;;1.63;;
13279;SDS011;6708;49.814;8.652;2024-03-17T05:16:04;1.70;;;1.60;;
13279;SDS011;6708;49.814;8.652;2024-03-17T05:18:32;1.87;;;1.77;;
13279;SDS011;6708;49.814;8.652;2024-03-17T05:21:03;1.90;;;1.80;;
13279;SDS011;6708;49.814;8.652;2024-03-17T05:23:36;1.83;;;1.73;;
13279;SDS011;6708;49.814;8.652;2024-03-17T05:26:05;2.27;;;2.17;;
13279;SDS011;6708;49.814;8.652;2024-03-17T05:28:33;2.07;;;1.97;;
13279;SDS011;6708;49.814;8.652;2024-03-17T05:31:01;2.50;;;1.83;;
13279;SDS011;6708;49.814;8.652;2024-03-17T05:33:30;2.40;;;1.70;;
13279;SDS011;6708;49.814;8.652;2024-03-17T05:35:59;1.90;;;1.80;;
13279;SDS011;6708;49.814;8.652;2024-03-17T05:38:30;1.70;;;1.60;;
13279;SDS011;6708;49.814;8.652;2024-03-17T05:41:01;4.20;;;1.50;;
13279;SDS011;6708;49.814;8.652;2024-03-17T05:43:31;4.77;;;1.90;;
13279;SDS011;6708;49.814;8.652;2024-03-17T05:46:01;2.10;;;2.00;;
13279;SDS011;6708;49.814;8.652;2024-03-17T05:48:31;2.40;;;2.30;;
13279;SDS011;6708;49.814;8.652;2024-03-17T05:51:00;2.00;;;1.90;;
13279;SDS011;6708;49.814;8.652;2024-03-17T05:53:29;1.73;;;1.70;;
13279;SDS011;6708;49.814;8.652;2024-03-17T05:56:01;2.63;;;2.00;;
13279;SDS011;6708;49.814;8.652;2024-03-17T05:58:29;2.07;;;1.97;;
13279;SDS011;6708;49.814;8.652;2024-03-17T06:01:01;1.70;;;1.60;;
13279;SDS011;6708;49.814;8.652;2024-03-17T06:03:29;2.03;;;1.93;;
13279;SDS011;6708;49.814;8.652;2024-03-17T06:06:01;1.63;;;1.53;;
13279;SDS011;6708;49.814;8.652;2024-03-17T06:08:29;1.70;;;1.70;;
13279;SDS011;6708;49.814;8.652;2024-03-17T06:11:00;2.53;;;2.10;;
13279;SDS011;6708;49.814;8.652;2024-03-17T06:13:29;1.73;;;1.63;;
13279;SDS011;6708;49.814;8.652;2024-03-17T06:15:58;2.47;;;2.27;;
13279;SDS011;6708;49.814;8.652;2024-03-17T06:18:26;1.73;;;1.63;;
13279;SDS011;6708;49.814;8.652;2024-03-17T06:20:55;1.60;;;1.50;;
13279;SDS011;6708;49.814;8.652;2024-03-17T06:23:25;1.23;;;1.13;;
13279;SDS011;6708;49.814;8.652;2024-03-17T06:25:54;1.10;;;1.10;;
13279;SDS011;6708;49.814;8.652;2024-03-17T06:28:27;1.63;;;1.30;;
13279;SDS011;6708;49.814;8.652;2024-03-17T06:30:55;1.40;;;1.23;;
13279;SDS011;6708;49.814;8.652;2024-03-17T06:33:24;1.00;;;1.00;;
13279;SDS011;6708;49.814;8.652;2024-03-17T06:35:53;1.50;;;1.50;;
13279;SDS011;6708;49.814;8.652;2024-03-17T06:38:21;1.20;;;1.10;;
13279;SDS011;6708;49.814;8.652;2024-03-17T06:40:50;1.10;;;1.10;;
13279;SDS011;6708;49.814;8.652;2024-03-17T06:43:18;0.93;;;0.93;;
13279;SDS011;6708;49.814;8.652;2024-03-17T06:45:56;1.07;;;1.00;;
13279;SDS011;6708;49.814;8.652;2024-03-17T06:48:24;1.27;;;1.20;;
13279;SDS011;6708;49.814;8.652;2024-03-17T06:50:53;1.10;;;1.10;;
13279;SDS011;6708;49.814;8.652;2024-03-17T06:53:22;1.27;;;1.23;;
13279;SDS011;6708;49.814;8.652;2024-03-17T06:55:52;1.20;;;1.10;;
13279;SDS011;6708;49.814;8.652;2024-03-17T06:58:21;1.13;;;1.13;;
13279;SDS011;6708;49.814;8.652;2024-03-17T07:00:56;1.00;;;0.73;;
13279;SDS011;6708;49.814;8.652;2024-03-17T07:03:25;0.80;;;0.80;;
13279;SDS011;6708;49.814;8.652;2024-03-17T07:05:55;0.87;;;0.87;;
13279;SDS011;6708;49.814;8.652;2024-03-17T07:08:24;2.53;;;1.03;;
13279;SDS011;6708;49.814;8.652;2024-03-17T07:10:59;2.13;;;1.30;;
13279;SDS011;6708;49.814;8.652;2024-03-17T07:13:28;1.27;;;1.00;;
13279;SDS011;6708;49.814;8.652;2024-03-17T07:16:00;2.17;;;1.40;;
13279;SDS011;6708;49.814;8.652;2024-03-17T07:18:31;0.97;;;0.97;;
13279;SDS011;6708;49.814;8.652;2024-03-17T07:21:00;2.10;;;1.27;;
13279;SDS011;6708;49.814;8.652;2024-03-17T07:23:30;1.20;;;1.20;;
13279;SDS011;6708;49.814;8.652;2024-03-17T07:26:00;0.90;;;0.90;;
13279;SDS011;6708;49.814;8.652;2024-03-17T07:28:30;0.67;;;0.67;;
13279;SDS011;6708;49.814;8.652;2024-03-17T07:31:01;0.73;;;0.73;;
13279;SDS011;6708;49.814;8.652;2024-03-17T07:33:30;3.20;;;1.00;;
13279;SDS011;6708;49.814;8.652;2024-03-17T07:35:58;0.93;;;0.80;;
13279;SDS011;6708;49.814;8.652;2024-03-17T07:38:28;1.20;;;1.13;;
13279;SDS011;6708;49.814;8.652;2024-03-17T07:41:01;0.70;;;0.67;;
13279;SDS011;6708;49.814;8.652;2024-03-17T07:43:30;1.27;;;1.13;;
13279;SDS011;6708;49.814;8.652;2024-03-17T07:46:03;0.73;;;0.70;;
13279;SDS011;6708;49.814;8.652;2024-03-17T07:48:33;1.27;;;0.90;;
13279;SDS011;6708;49.814;8.652;2024-03-17T07:51:03;1.03;;;1.03;;
13279;SDS011;6708;49.814;8.652;2024-03-17T07:53:32;0.70;;;0.67;;
13279;SDS011;6708;49.814;8.652;2024-03-17T07:56:00;0.80;;;0.80;;
13279;SDS011;6708;49.814;8.652;2024-03-17T07:58:29;1.50;;;0.90;;
13279;SDS011;6708;49.814;8.652;2024-03-17T08:00:58;1.00;;;0.87;;
13279;SDS011;6708;49.814;8.652;2024-03-17T08:03:30;3.40;;;0.90;;
13279;SDS011;6708;49.814;8.652;2024-03-17T08:06:01;0.97;;;0.87;;
13279;SDS011;6708;49.814;8.652;2024-03-17T08:08:31;0.87;;;0.87;;
13279;SDS011;6708;49.814;8.652;2024-03-17T08:11:00;1.77;;;1.27;;
13279;SDS011;6708;49.814;8.652;2024-03-17T08:13:28;2.73;;;0.83;;
13279;SDS011;6708;49.814;8.652;2024-03-17T08:16:00;0.67;;;0.67;;
13279;SDS011;6708;49.814;8.652;2024-03-17T08:18:33;1.10;;;1.10;;
13279;SDS011;6708;49.814;8.652;2024-03-17T08:21:02;1.00;;;1.00;;
13279;SDS011;6708;49.814;8.652;2024-03-17T08:23:31;0.73;;;0.73;;
13279;SDS011;6708;49.814;8.652;2024-03-17T08:26:02;0.57;;;0.57;;
13279;SDS011;6708;49.814;8.652;2024-03-17T08:28:30;0.93;;;0.93;;
13279;SDS011;6708;49.814;8.652;2024-03-17T08:31:00;2.70;;;2.27;;
13279;SDS011;6708;49.814;8.652;2024-03-17T08:33:29;1.70;;;1.50;;
13279;SDS011;6708;49.814;8.652;2024-03-17T08:36:01;0.73;;;0.60;;
13279;SDS011;6708;49.814;8.652;2024-03-17T08:38:30;1.87;;;0.80;;
13279;SDS011;6708;49.814;8.652;2024-03-17T08:41:02;0.60;;;0.60;;
13279;SDS011;6708;49.814;8.652;2024-03-17T08:43:31;1.20;;;0.60;;
13279;SDS011;6708;49.814;8.652;2024-03-17T08:46:00;0.80;;;0.80;;
13279;SDS011;6708;49.814;8.652;2024-03-17T08:48:33;0.70;;;0.70;;
13279;SDS011;6708;49.814;8.652;2024-03-17T08:51:03;2.37;;;0.70;;
13279;SDS011;6708;49.814;8.652;2024-03-17T08:53:32;0.80;;;0.63;;
13279;SDS011;6708;49.814;8.652;2024-03-17T08:56:02;0.60;;;0.60;;
13279;SDS011;6708;49.814;8.652;2024-03-17T08:58:31;1.27;;;0.70;;
13279;SDS011;6708;49.814;8.652;2024-03-17T09:01:03;0.80;;;0.80;;
13279;SDS011;6708;49.814;8.652;2024-03-17T09:03:34;0.77;;;0.77;;
13279;SDS011;6708;49.814;8.652;2024-03-17T09:06:03;0.67;;;0.67;;
13279;SDS011;6708;49.814;8.652;2024-03-17T09:08:32;0.60;;;0.60;;
13279;SDS011;6708;49.814;8.652;2024-03-17T09:11:00;1.00;;;1.00;;
13279;SDS011;6708;49.814;8.652;2024-03-17T09:13:28;0.77;;;0.77;;
13279;SDS011;6708;49.814;8.652;2024-03-17T09:15:57;0.77;;;0.70;;
13279;SDS011;6708;49.814;8.652;2024-03-17T09:18:27;0.70;;;0.70;;
13279;SDS011;6708;49.814;8.652;2024-03-17T09:20:59;0.80;;;0.80;;
13279;SDS011;6708;49.814;8.652;2024-03-17T09:23:28;1.17;;;1.17;;
13279;SDS011;6708;49.814;8.652;2024-03-17T09:26:00;0.80;;;0.80;;
13279;SDS011;6708;49.814;8.652;2024-03-17T09:28:29;1.53;;;0.93;;
13279;SDS011;6708;49.814;8.652;2024-03-17T09:30:58;0.97;;;0.73;;
13279;SDS011;6708;49.814;8.652;2024-03-17T09:33:28;1.03;;;0.73;;
13279;SDS011;6708;49.814;8.652;2024-03-17T09:36:01;1.37;;;0.97;;
13279;SDS011;6708;49.814;8.652;2024-03-17T09:38:31;0.70;;;0.70;;
13279;SDS011;6708;49.814;8.652;2024-03-17T09:41:00;1.40;;;1.10;;
13279;SDS011;6708;49.814;8.652;2024-03-17T09:43:29;0.80;;;0.80;;
13279;SDS011;6708;49.814;8.652;2024-03-17T09:46:01;1.60;;;0.93;;
13279;SDS011;6708;49.814;8.652;2024-03-17T09:48:30;0.80;;;0.80;;
13279;SDS011;6708;49.814;8.652;2024-03-17T09:51:01;1.83;;;1.00;;
13279;SDS011;6708;49.814;8.652;2024-03-17T09:53:31;0.83;;;0.83;;
13279;SDS011;6708;49.814;8.652;2024-03-17T09:56:01;3.63;;;1.10;;
13279;SDS011;6708;49.814;8.652;2024-03-17T09:58:33;1.10;;;1.10;;
13279;SDS011;6708;49.814;8.652;2024-03-17T10:01:02;1.17;;;1.07;;
13279;SDS011;6708;49.814;8.652;2024-03-17T10:03:40;1.00;;;0.83;;
13279;SDS011;6708;49.814;8.652;2024-03-17T10:06:13;1.20;;;1.13;;
13279;SDS011;6708;49.814;8.652;2024-03-17T10:08:42;0.90;;;0.90;;
13279;SDS011;6708;49.814;8.652;2024-03-17T10:11:12;1.00;;;1.00;;
13279;SDS011;6708;49.814;8.652;2024-03-17T10:13:41;1.13;;;1.13;;
13279;SDS011;6708;49.814;8.652;2024-03-17T10:16:21;2.07;;;1.17;;
13279;SDS011;6708;49.814;8.652;2024-03-17T10:19:06;1.43;;;1.30;;
13279;SDS011;6708;49.814;8.652;2024-03-17T10:21:41;1.30;;;1.30;;
13279;SDS011;6708;49.814;8.652;2024-03-17T10:24:13;1.17;;;1.10;;
13279;SDS011;6708;49.814;8.652;2024-03-17T10:26:42;1.80;;;1.20;;
13279;SDS011;6708;49.814;8.652;2024-03-17T10:29:19;2.20;;;1.60;;
13279;SDS011;6708;49.814;8.652;2024-03-17T10:31:50;3.50;;;1.50;;
13279;SDS011;6708;49.814;8.652;2024-03-17T10:34:18;1.53;;;1.30;;
13279;SDS011;6708;49.814;8.652;2024-03-17T10:36:52;1.47;;;1.37;;
13279;SDS011;6708;49.814;8.652;2024-03-17T10:39:35;1.67;;;1.27;;
13279;SDS011;6708;49.814;8.652;2024-03-17T10:42:04;1.10;;;1.10;;
13279;SDS011;6708;49.814;8.652;2024-03-17T10:44:34;1.90;;;1.80;;
13279;SDS011;6708;49.814;8.652;2024-03-17T10:47:04;2.17;;;1.60;;
13279;SDS011;6708;49.814;8.652;2024-03-17T10:49:35;1.60;;;1.50;;
13279;SDS011;6708;49.814;8.652;2024-03-17T10:52:07;2.57;;;1.70;;
13279;SDS011;6708;49.814;8.652;2024-03-17T10:54:36;1.70;;;1.60;;
13279;SDS011;6708;49.814;8.652;2024-03-17T10:57:07;1.90;;;1.80;;
13279;SDS011;6708;49.814;8.652;2024-03-17T10:59:46;3.23;;;1.63;;
13279;SDS011;6708;49.814;8.652;2024-03-17T11:02:20;1.73;;;1.67;;
13279;SDS011;6708;49.814;8.652;2024-03-17T11:04:51;1.83;;;1.73;;
13279;SDS011;6708;49.814;8.652;2024-03-17T11:07:23;3.50;;;1.93;;
13279;SDS011;6708;49.814;8.652;2024-03-17T11:09:53;1.90;;;1.80;;
13279;SDS011;6708;49.814;8.652;2024-03-17T11:12:40;2.00;;;1.80;;
13279;SDS011;6708;49.814;8.652;2024-03-17T11:20:59;1.93;;;1.83;;
13279;SDS011;6708;49.814;8.652;2024-03-17T11:23:36;2.10;;;1.90;;
13279;SDS011;6708;49.814;8.652;2024-03-17T11:26:05;2.07;;;1.97;;
13279;SDS011;6708;49.814;8.652;2024-03-17T11:28:44;1.90;;;1.80;;
13279;SDS011;6708;49.814;8.652;2024-03-17T11:37:03;2.90;;;2.70;;
13279;SDS011;6708;49.814;8.652;2024-03-17T11:39:48;3.40;;;2.47;;
13279;SDS011;6708;49.814;8.652;2024-03-17T11:42:20;3.40;;;2.93;;
13279;SDS011;6708;49.814;8.652;2024-03-17T11:44:56;2.30;;;2.20;;
13279;SDS011;6708;49.814;8.652;2024-03-17T11:47:23;2.33;;;2.20;;
13279;SDS011;6708;49.814;8.652;2024-03-17T11:50:02;2.43;;;2.23;;
13279;SDS011;6708;49.814;8.652;2024-03-17T11:52:29;2.83;;;2.63;;
13279;SDS011;6708;49.814;8.652;2024-03-17T11:55:00;3.93;;;2.50;;
13279;SDS011;6708;49.814;8.652;2024-03-17T11:57:28;2.63;;;2.43;;
13279;SDS011;6708;49.814;8.652;2024-03-17T11:59:55;2.60;;;2.50;;
13279;SDS011;6708;49.814;8.652;2024-03-17T12:02:25;2.60;;;2.47;;
13279;SDS011;6708;49.814;8.652;2024-03-17T12:04:51;2.60;;;2.50;;
13279;SDS011;6708;49.814;8.652;2024-03-17T12:07:21;2.90;;;2.60;;
13279;SDS011;6708;49.814;8.652;2024-03-17T12:09:49;2.97;;;2.77;;
13279;SDS011;6708;49.814;8.652;2024-03-17T12:12:22;2.67;;;2.47;;
13279;SDS011;6708;49.814;8.652;2024-03-17T12:14:49;3.03;;;2.83;;
13279;SDS011;6708;49.814;8.652;2024-03-17T12:17:19;5.20;;;2.80;;
13279;SDS011;6708;49.814;8.652;2024-03-17T12:19:46;4.40;;;2.60;;
13279;SDS011;6708;49.814;8.652;2024-03-17T12:22:16;2.97;;;2.77;;
13279;SDS011;6708;49.814;8.652;2024-03-17T12:24:47;3.00;;;2.80;;
13279;SDS011;6708;49.814;8.652;2024-03-17T12:27:16;3.40;;;3.10;;
13279;SDS011;6708;49.814;8.652;2024-03-17T12:29:46;3.53;;;3.20;;
13279;SDS011;6708;49.814;8.652;2024-03-17T12:32:15;4.27;;;3.20;;
13279;SDS011;6708;49.814;8.652;2024-03-17T12:34:42;3.27;;;3.03;;
13279;SDS011;6708;49.814;8.652;2024-03-17T12:37:15;3.47;;;3.17;;
13279;SDS011;6708;49.814;8.652;2024-03-17T12:39:42;3.77;;;3.20;;
13279;SDS011;6708;49.814;8.652;2024-03-17T12:42:11;3.17;;;2.80;;
13279;SDS011;6708;49.814;8.652;2024-03-17T12:44:38;3.43;;;3.13;;
13279;SDS011;6708;49.814;8.652;2024-03-17T12:47:14;2.97;;;2.60;;
13279;SDS011;6708;49.814;8.652;2024-03-17T12:49:44;3.40;;;3.20;;
13279;SDS011;6708;49.814;8.652;2024-03-17T12:52:19;3.73;;;3.33;;
13279;SDS011;6708;49.814;8.652;2024-03-17T12:54:45;2.83;;;2.63;;
13279;SDS011;6708;49.814;8.652;2024-03-17T12:57:44;3.03;;;2.83;;
13279;SDS011;6708;49.814;8.652;2024-03-17T13:00:25;2.90;;;2.70;;
13279;SDS011;6708;49.814;8.652;2024-03-17T13:03:04;3.27;;;3.00;;
13279;SDS011;6708;49.814;8.652;2024-03-17T13:05:32;3.90;;;3.20;;
13279;SDS011;6708;49.814;8.652;2024-03-17T13:08:01;5.37;;;3.10;;
13279;SDS011;6708;49.814;8.652;2024-03-17T13:10:30;3.33;;;3.10;;
13279;SDS011;6708;49.814;8.652;2024-03-17T13:12:59;3.30;;;3.00;;
13279;SDS011;6708;49.814;8.652;2024-03-17T13:15:29;3.40;;;3.20;;
13279;SDS011;6708;49.814;8.652;2024-03-17T13:18:03;4.23;;;3.27;;
13279;SDS011;6708;49.814;8.652;2024-03-17T13:20:33;3.43;;;3.13;;
13279;SDS011;6708;49.814;8.652;2024-03-17T13:23:02;3.60;;;3.30;;
13279;SDS011;6708;49.814;8.652;2024-03-17T13:25:31;3.80;;;3.50;;
13279;SDS011;6708;49.814;8.652;2024-03-17T13:28:01;2.80;;;2.60;;
13279;SDS011;6708;49.814;8.652;2024-03-17T13:30:32;3.57;;;3.07;;
13279;SDS011;6708;49.814;8.652;2024-03-17T13:33:04;3.60;;;3.30;;
13279;SDS011;6708;49.814;8.652;2024-03-17T13:35:34;3.07;;;2.87;;
13279;SDS011;6708;49.814;8.652;2024-03-17T13:38:04;3.60;;;3.30;;
13279;SDS011;6708;49.814;8.652;2024-03-17T13:40:33;3.27;;;2.90;;
13279;SDS011;6708;49.814;8.652;2024-03-17T13:43:03;5.37;;;3.20;;
13279;SDS011;6708;49.814;8.652;2024-03-17T13:45:37;3.20;;;3.00;;
13279;SDS011;6708;49.814;8.652;2024-03-17T13:48:09;3.63;;;3.30;;
13279;SDS011;6708;49.814;8.652;2024-03-17T13:50:38;3.07;;;2.87;;
13279;SDS011;6708;49.814;8.652;2024-03-17T13:53:09;2.60;;;2.40;;
13279;SDS011;6708;49.814;8.652;2024-03-17T13:55:37;2.60;;;2.50;;
13279;SDS011;6708;49.814;8.652;2024-03-17T13:58:06;4.07;;;2.70;;
13279;SDS011;6708;49.814;8.652;2024-03-17T14:00:35;4.00;;;3.40;;
13279;SDS011;6708;49.814;8.652;2024-03-17T14:03:04;5.10;;;3.07;;
13279;SDS011;6708;49.814;8.652;2024-03-17T14:05:35;3.17;;;2.97;;
13279;SDS011;6708;49.814;8.652;2024-03-17T14:08:04;3.63;;;3.27;;
13279;SDS011;6708;49.814;8.652;2024-03-17T14:10:30;3.80;;;3.23;;
13279;SDS011;6708;49.814;8.652;2024-03-17T14:13:00;3.27;;;2.97;;
13279;SDS011;6708;49.814;8.652;2024-03-17T14:15:29;3.03;;;2.70;;
13279;SDS011;6708;49.814;8.652;2024-03-17T14:17:58;2.67;;;2.57;;
13279;SDS011;6708;49.814;8.652;2024-03-17T14:20:28;3.30;;;3.10;;
13279;SDS011;6708;49.814;8.652;2024-03-17T14:22:59;2.70;;;2.60;;
13279;SDS011;6708;49.814;8.652;2024-03-17T14:25:28;3.30;;;3.10;;
13279;SDS011;6708;49.814;8.652;2024-03-17T14:27:57;2.90;;;2.70;;
13279;SDS011;6708;49.814;8.652;2024-03-17T14:30:25;3.07;;;2.83;;
13279;SDS011;6708;49.814;8.652;2024-03-17T14:32:53;2.70;;;2.60;;
13279;SDS011;6708;49.814;8.652;2024-03-17T14:35:22;2.80;;;2.70;;
13279;SDS011;6708;49.814;8.652;2024-03-17T14:37:52;3.57;;;2.90;;
13279;SDS011;6708;49.814;8.652;2024-03-17T14:40:23;2.57;;;2.37;;
13279;SDS011;6708;49.814;8.652;2024-03-17T14:42:53;4.67;;;3.20;;
13279;SDS011;6708;49.814;8.652;2024-03-17T14:45:22;3.27;;;3.07;;
13279;SDS011;6708;49.814;8.652;2024-03-17T14:47:51;3.30;;;3.10;;
13279;SDS011;6708;49.814;8.652;2024-03-17T14:50:19;5.53;;;2.77;;
13279;SDS011;6708;49.814;8.652;2024-03-17T14:52:48;3.00;;;2.80;;
13279;SDS011;6708;49.814;8.652;2024-03-17T14:55:16;3.10;;;2.90;;
13279;SDS011;6708;49.814;8.652;2024-03-17T14:57:48;2.40;;;2.27;;
13279;SDS011;6708;49.814;8.652;2024-03-17T15:00:17;2.70;;;2.50;;
13279;SDS011;6708;49.814;8.652;2024-03-17T15:02:46;2.83;;;2.63;;
13279;SDS011;6708;49.814;8.652;2024-03-17T15:05:15;2.30;;;2.20;;
13279;SDS011;6708;49.814;8.652;2024-03-17T15:07:45;3.33;;;2.43;;
13279;SDS011;6708;49.814;8.652;2024-03-17T15:10:14;2.87;;;2.67;;
13279;SDS011;6708;49.814;8.652;2024-03-17T15:12:49;2.70;;;2.60;;
13279;SDS011;6708;49.814;8.652;2024-03-17T15:15:18;3.27;;;2.97;;
13279;SDS011;6708;49.814;8.652;2024-03-17T15:17:47;2.50;;;2.30;;
13279;SDS011;6708;49.814;8.652;2024-03-17T15:20:16;2.50;;;2.40;;
13279;SDS011;6708;49.814;8.652;2024-03-17T15:22:47;2.80;;;2.60;;
13279;SDS011;6708;49.814;8.652;2024-03-17T15:25:17;3.03;;;1.97;;
13279;SDS011;6708;49.814;8.652;2024-03-17T15:27:45;2.50;;;2.40;;